createdAt,value
2024-02-19T00:01:14.231Z,4.40
2024-02-19T00:03:41.382Z,3.65
2024-02-19T00:06:08.577Z,4.15
2024-02-19T00:08:35.750Z,3.72
2024-02-19T00:11:02.876Z,4.65
2024-02-19T00:13:30.064Z,4.70
2024-02-19T00:15:57.421Z,4.50
2024-02-19T00:18:24.731Z,5.43
2024-02-19T00:20:52.365Z,4.75
2024-02-19T00:23:19.365Z,4.70
2024-02-19T00:25:46.464Z,5.28
2024-02-19T00:28:13.968Z,4.47
2024-02-19T00:30:41.220Z,5.18
2024-02-19T00:33:08.810Z,5.63
2024-02-19T00:35:35.922Z,4.75
2024-02-19T00:38:03.489Z,4.60
2024-02-19T00:40:30.487Z,4.50
2024-02-19T00:42:57.650Z,5.18
2024-02-19T00:45:25.338Z,4.60
2024-02-19T00:47:52.455Z,4.05
2024-02-19T00:50:19.892Z,6.03
2024-02-19T00:52:47.098Z,5.22
2024-02-19T00:55:14.188Z,5.32
2024-02-19T00:57:41.227Z,4.43
2024-02-19T01:00:09.425Z,5.47
2024-02-19T01:02:37.225Z,4.82
2024-02-19T01:05:05.363Z,5.60
2024-02-19T01:07:32.956Z,5.30
2024-02-19T01:10:00.200Z,4.60
2024-02-19T01:12:27.306Z,5.75
2024-02-19T01:14:54.359Z,4.32
2024-02-19T01:17:21.831Z,4.03
2024-02-19T01:19:48.975Z,4.57
2024-02-19T01:22:16.794Z,4.88
2024-02-19T01:24:43.999Z,4.65
2024-02-19T01:27:11.614Z,4.28
2024-02-19T01:29:38.892Z,4.90
2024-02-19T01:32:06.003Z,4.82
2024-02-19T01:34:33.286Z,3.90
2024-02-19T01:37:00.579Z,4.57
2024-02-19T01:39:27.907Z,4.32
2024-02-19T01:41:55.608Z,4.00
2024-02-19T01:44:22.944Z,5.10
2024-02-19T01:46:50.752Z,4.68
2024-02-19T01:49:18.590Z,4.72
2024-02-19T01:51:46.541Z,4.57
2024-02-19T01:54:15.658Z,4.68
2024-02-19T01:56:44.259Z,4.28
2024-02-19T01:59:12.172Z,5.10
2024-02-19T02:01:41.094Z,5.28
2024-02-19T02:04:09.605Z,5.72
2024-02-19T02:06:37.230Z,3.72
2024-02-19T02:09:05.082Z,4.75
2024-02-19T02:11:32.247Z,4.40
2024-02-19T02:13:59.310Z,4.25
2024-02-19T02:16:27.487Z,3.80
2024-02-19T02:18:55.512Z,4.82
2024-02-19T02:21:23.484Z,4.50
2024-02-19T02:23:50.819Z,5.30
2024-02-19T02:26:18.121Z,4.95
2024-02-19T02:28:45.217Z,4.47
2024-02-19T02:31:12.377Z,3.90
2024-02-19T02:33:39.776Z,4.75
2024-02-19T02:36:10.702Z,3.53
2024-02-19T02:38:37.758Z,4.40
2024-02-19T02:41:04.904Z,4.18
2024-02-19T02:43:32.051Z,4.22
2024-02-19T02:45:59.503Z,3.80
2024-02-19T02:48:26.652Z,4.68
2024-02-19T02:50:53.764Z,3.80
2024-02-19T02:53:23.312Z,3.50
2024-02-19T02:55:50.827Z,3.80
2024-02-19T02:58:18.010Z,3.83
2024-02-19T03:00:45.229Z,5.03
2024-02-19T03:03:12.732Z,3.67
2024-02-19T03:05:40.318Z,4.18
2024-02-19T03:08:08.415Z,4.07
2024-02-19T03:10:36.150Z,3.70
2024-02-19T03:13:04.280Z,4.32
2024-02-19T03:15:31.444Z,4.20
2024-02-19T03:17:58.517Z,3.90
2024-02-19T03:20:26.060Z,3.90
2024-02-19T03:22:54.529Z,4.10
2024-02-19T03:25:21.625Z,4.68
2024-02-19T03:27:50.289Z,4.28
2024-02-19T03:30:18.307Z,4.53
2024-02-19T03:32:45.841Z,4.95
2024-02-19T03:35:13.648Z,4.78
2024-02-19T03:37:40.700Z,4.43
2024-02-19T03:40:10.241Z,6.22
2024-02-19T03:42:37.674Z,6.13
2024-02-19T03:45:06.076Z,5.00
2024-02-19T03:47:33.606Z,6.13
2024-02-19T03:50:00.860Z,5.85
2024-02-19T03:52:28.294Z,4.95
2024-02-19T03:54:55.961Z,6.38
2024-02-19T03:57:23.952Z,5.43
2024-02-19T03:59:51.238Z,5.80
2024-02-19T04:02:19.309Z,6.18
2024-02-19T04:04:46.933Z,5.25
2024-02-19T04:07:14.154Z,6.38
2024-02-19T04:09:41.431Z,5.90
2024-02-19T04:12:09.647Z,5.97
2024-02-19T04:14:40.025Z,6.07
2024-02-19T04:17:07.381Z,6.60
2024-02-19T04:19:34.550Z,5.38
2024-02-19T04:22:01.732Z,6.22
2024-02-19T04:24:29.030Z,6.20
2024-02-19T04:26:56.086Z,5.65
2024-02-19T04:29:23.701Z,6.00
2024-02-19T04:31:50.897Z,6.15
2024-02-19T04:34:18.152Z,6.13
2024-02-19T04:36:45.465Z,6.78
2024-02-19T04:39:12.533Z,6.47
2024-02-19T04:41:39.849Z,6.78
2024-02-19T04:44:07.400Z,5.60
2024-02-19T04:46:35.527Z,6.20
2024-02-19T04:49:02.833Z,5.97
2024-02-19T04:51:30.134Z,5.25
2024-02-19T04:53:57.170Z,5.97
2024-02-19T04:56:24.336Z,6.18
2024-02-19T04:58:51.278Z,5.28
2024-02-19T05:01:18.478Z,5.55
2024-02-19T05:03:45.733Z,5.63
2024-02-19T05:06:13.216Z,6.05
2024-02-19T05:08:40.215Z,6.95
2024-02-19T05:11:08.281Z,5.47
2024-02-19T05:13:38.481Z,6.03
2024-02-19T05:16:07.901Z,5.32
2024-02-19T05:18:35.210Z,5.68
2024-02-19T05:21:03.955Z,6.88
2024-02-19T05:23:32.137Z,6.72
2024-02-19T05:25:59.539Z,7.15
2024-02-19T05:28:26.635Z,7.05
2024-02-19T05:30:54.120Z,6.97
2024-02-19T05:33:21.437Z,6.93
2024-02-19T05:35:48.701Z,6.40
2024-02-19T05:38:15.794Z,7.90
2024-02-19T05:40:42.848Z,6.85
2024-02-19T05:43:09.945Z,7.85
2024-02-19T05:45:37.252Z,8.18
2024-02-19T05:48:04.882Z,6.78
2024-02-19T05:50:33.217Z,7.40
2024-02-19T05:53:00.635Z,8.63
2024-02-19T05:55:28.885Z,8.15
2024-02-19T05:57:56.150Z,7.78
2024-02-19T06:00:23.255Z,7.82
2024-02-19T06:02:50.446Z,8.15
2024-02-19T06:05:17.733Z,7.72
2024-02-19T06:07:45.376Z,8.27
2024-02-19T06:10:12.888Z,8.80
2024-02-19T06:12:40.723Z,8.65
2024-02-19T06:15:08.206Z,7.57
2024-02-19T06:17:35.520Z,8.48
2024-02-19T06:20:03.129Z,8.55
2024-02-19T06:22:30.291Z,7.93
2024-02-19T06:24:57.379Z,9.15
2024-02-19T06:27:24.774Z,9.02
2024-02-19T06:29:51.780Z,8.93
2024-02-19T06:32:18.985Z,8.23
2024-02-19T06:34:46.205Z,7.75
2024-02-19T06:37:13.850Z,7.45
2024-02-19T06:39:42.515Z,8.05
2024-02-19T06:42:09.552Z,8.43
2024-02-19T06:44:36.621Z,7.93
2024-02-19T06:47:03.782Z,8.50
2024-02-19T06:49:30.880Z,8.00
2024-02-19T06:51:58.403Z,8.57
2024-02-19T06:54:29.333Z,8.77
2024-02-19T06:56:58.286Z,8.45
2024-02-19T06:59:25.265Z,9.65
2024-02-19T07:01:52.564Z,9.38
2024-02-19T07:04:20.749Z,9.32
2024-02-19T07:06:48.363Z,10.32
2024-02-19T07:09:16.259Z,10.15
2024-02-19T07:11:43.494Z,9.95
2024-02-19T07:14:10.529Z,10.57
2024-02-19T07:16:37.884Z,10.85
2024-02-19T07:19:05.004Z,11.43
2024-02-19T07:21:32.132Z,11.23
2024-02-19T07:23:59.153Z,13.05
2024-02-19T07:26:26.265Z,13.35
2024-02-19T07:28:53.552Z,13.73
2024-02-19T07:31:21.036Z,13.23
2024-02-19T07:33:48.483Z,14.40
2024-02-19T07:36:16.461Z,14.88
2024-02-19T07:38:43.349Z,14.13
2024-02-19T07:41:17.273Z,15.10
2024-02-19T07:43:45.298Z,15.35
2024-02-19T07:46:13.230Z,16.52
2024-02-19T07:48:40.482Z,17.48
2024-02-19T07:51:07.956Z,16.65
2024-02-19T07:53:35.677Z,18.23
2024-02-19T07:56:07.116Z,18.50
2024-02-19T07:58:35.209Z,17.40
2024-02-19T08:01:05.574Z,20.08
2024-02-19T08:03:33.778Z,18.88
2024-02-19T08:06:01.493Z,20.02
2024-02-19T08:08:29.986Z,18.85
2024-02-19T08:10:57.032Z,19.60
2024-02-19T08:13:24.282Z,19.92
2024-02-19T08:15:51.578Z,19.50
2024-02-19T08:18:18.961Z,21.00
2024-02-19T08:20:46.308Z,21.10
2024-02-19T08:23:13.603Z,20.73
2024-02-19T08:25:40.804Z,21.58
2024-02-19T08:28:08.059Z,20.63
2024-02-19T08:30:35.227Z,22.60
2024-02-19T08:33:02.322Z,20.83
2024-02-19T08:35:29.462Z,20.95
2024-02-19T08:37:57.512Z,20.05
2024-02-19T08:40:24.744Z,21.23
2024-02-19T08:42:52.173Z,21.13
2024-02-19T08:45:22.759Z,20.73
2024-02-19T08:47:51.572Z,20.23
2024-02-19T08:50:18.612Z,21.63
2024-02-19T08:52:45.679Z,20.38
2024-02-19T08:55:12.974Z,20.38
2024-02-19T08:57:40.440Z,21.70
2024-02-19T09:00:09.841Z,21.48
2024-02-19T09:02:37.096Z,23.65
2024-02-19T09:05:04.277Z,22.52
2024-02-19T09:07:31.641Z,21.25
2024-02-19T09:09:58.947Z,21.15
2024-02-19T09:12:26.251Z,21.35
2024-02-19T09:14:53.754Z,21.38
2024-02-19T09:17:20.920Z,22.15
2024-02-19T09:19:48.001Z,20.77
2024-02-19T09:22:16.130Z,19.63
2024-02-19T09:24:45.842Z,19.60
2024-02-19T09:27:12.871Z,19.77
2024-02-19T09:29:39.975Z,19.17
2024-02-19T09:32:07.750Z,18.95
2024-02-19T09:34:35.502Z,17.95
2024-02-19T09:37:02.847Z,20.05
2024-02-19T09:39:30.066Z,19.60
2024-02-19T09:41:57.164Z,18.38
2024-02-19T09:44:24.242Z,18.58
2024-02-19T09:46:56.432Z,17.70
2024-02-19T09:49:28.261Z,17.25
2024-02-19T09:51:57.913Z,18.05
2024-02-19T09:54:26.528Z,15.25
2024-02-19T09:56:56.121Z,14.85
2024-02-19T09:59:23.811Z,14.15
2024-02-19T10:01:50.994Z,13.10
2024-02-19T10:04:18.248Z,13.38
2024-02-19T10:06:46.825Z,13.77
2024-02-19T10:09:15.499Z,11.57
2024-02-19T10:11:42.582Z,10.95
2024-02-19T10:14:11.881Z,10.85
2024-02-19T10:16:41.545Z,9.30
2024-02-19T10:19:10.566Z,10.35
2024-02-19T10:21:38.325Z,10.95
2024-02-19T10:24:06.396Z,9.07
2024-02-19T10:26:34.070Z,9.35
2024-02-19T10:29:01.219Z,10.15
2024-02-19T10:31:29.522Z,9.52
2024-02-19T10:33:56.995Z,8.73
2024-02-19T10:36:24.813Z,9.43
2024-02-19T10:38:52.807Z,8.65
2024-02-19T10:41:22.449Z,8.10
2024-02-19T10:43:50.866Z,8.38
2024-02-19T10:46:22.175Z,9.02
2024-02-19T10:48:51.218Z,8.25
2024-02-19T10:51:20.859Z,9.60
2024-02-19T10:53:48.251Z,9.55
2024-02-19T10:56:20.226Z,10.07
2024-02-19T10:58:57.573Z,11.07
2024-02-19T11:01:25.628Z,10.70
2024-02-19T11:03:52.946Z,12.40
2024-02-19T11:06:25.551Z,10.75
2024-02-19T11:08:57.471Z,10.37
2024-02-19T11:11:26.181Z,11.63
2024-02-19T11:13:53.567Z,13.13
2024-02-19T11:16:21.314Z,14.05
2024-02-19T11:18:53.235Z,13.93
2024-02-19T11:21:21.925Z,13.68
2024-02-19T11:23:48.923Z,14.73
2024-02-19T11:26:15.873Z,16.73
2024-02-19T11:28:43.691Z,14.77
2024-02-19T11:31:15.044Z,15.10
2024-02-19T11:33:42.272Z,15.57
2024-02-19T11:36:09.567Z,15.13
2024-02-19T11:38:40.317Z,14.57
2024-02-19T11:41:11.189Z,15.43
2024-02-19T11:43:42.048Z,16.17
2024-02-19T11:46:09.199Z,16.38
2024-02-19T11:48:37.575Z,15.43
2024-02-19T11:51:06.559Z,15.57
2024-02-19T11:53:33.959Z,16.20
2024-02-19T11:56:02.164Z,14.90
2024-02-19T11:58:29.971Z,18.55
2024-02-19T12:00:58.209Z,23.90
2024-02-19T12:03:26.737Z,15.35
2024-02-19T12:05:54.758Z,18.45
2024-02-19T12:08:22.047Z,15.68
2024-02-19T12:10:49.206Z,14.82
2024-02-19T12:13:17.992Z,14.55
2024-02-19T12:15:52.432Z,13.45
2024-02-19T12:18:20.084Z,14.90
2024-02-19T12:20:47.265Z,14.48
2024-02-19T12:23:15.967Z,13.85
2024-02-19T12:25:43.566Z,14.50
2024-02-19T12:28:10.955Z,14.23
2024-02-19T12:30:38.027Z,13.35
2024-02-19T12:33:05.793Z,14.75
2024-02-19T12:35:32.989Z,15.05
2024-02-19T12:38:01.218Z,14.18
2024-02-19T12:40:28.722Z,13.70
2024-02-19T12:42:56.090Z,13.05
2024-02-19T12:45:23.249Z,13.45
2024-02-19T12:47:50.573Z,13.40
2024-02-19T12:50:19.135Z,13.70
2024-02-19T12:52:46.725Z,12.52
2024-02-19T12:55:16.721Z,13.00
2024-02-19T12:57:47.752Z,14.25
2024-02-19T13:00:15.050Z,11.85
2024-02-19T13:02:42.211Z,14.57
2024-02-19T13:05:09.496Z,14.05
2024-02-19T13:07:37.080Z,14.32
2024-02-19T13:10:04.334Z,10.07
2024-02-19T13:12:32.702Z,9.82
2024-02-19T13:15:00.992Z,9.85
2024-02-19T13:17:35.734Z,10.15
2024-02-19T13:20:07.851Z,8.88
2024-02-19T13:22:34.965Z,9.15
2024-02-19T13:25:02.298Z,8.43
2024-02-19T13:27:29.410Z,8.40
2024-02-19T13:29:56.468Z,9.57
2024-02-19T13:32:24.116Z,8.25
2024-02-19T13:34:51.392Z,8.38
2024-02-19T13:37:19.658Z,7.68
2024-02-19T13:39:46.822Z,7.95
2024-02-19T13:42:14.852Z,8.55
2024-02-19T13:44:42.830Z,8.48
2024-02-19T13:47:12.284Z,8.35
2024-02-19T13:49:39.860Z,7.20
2024-02-19T13:52:09.404Z,7.78
2024-02-19T13:54:36.449Z,7.07
2024-02-19T13:57:04.880Z,6.80
2024-02-19T13:59:32.142Z,7.72
2024-02-19T14:01:59.881Z,6.57
2024-02-19T14:04:27.036Z,7.03
2024-02-19T14:06:54.696Z,7.88
2024-02-19T14:09:21.777Z,7.22
2024-02-19T14:11:49.317Z,9.32
2024-02-19T14:14:17.629Z,8.20
2024-02-19T14:16:44.934Z,7.10
2024-02-19T14:19:12.089Z,7.63
2024-02-19T14:21:39.254Z,7.65
2024-02-19T14:24:06.334Z,8.00
2024-02-19T14:26:33.327Z,7.10
2024-02-19T14:29:07.136Z,8.10
2024-02-19T14:31:34.807Z,7.10
2024-02-19T14:34:02.163Z,7.70
2024-02-19T14:36:29.307Z,7.53
2024-02-19T14:38:56.405Z,8.57
2024-02-19T14:41:23.453Z,8.00
2024-02-19T14:43:50.536Z,7.57
2024-02-19T14:46:17.971Z,7.35
2024-02-19T14:48:46.914Z,6.93
2024-02-19T14:51:17.529Z,6.50
2024-02-19T14:53:46.607Z,6.53
2024-02-19T14:56:13.794Z,8.38
2024-02-19T14:58:41.610Z,7.55
2024-02-19T15:01:08.860Z,7.70
2024-02-19T15:03:36.232Z,7.97
2024-02-19T15:06:07.689Z,8.02
2024-02-19T15:08:35.512Z,8.02
2024-02-19T15:11:03.356Z,7.60
2024-02-19T15:13:30.440Z,7.00
2024-02-19T15:15:58.023Z,6.82
2024-02-19T15:18:25.473Z,7.68
2024-02-19T15:20:53.604Z,7.18
2024-02-19T15:23:21.711Z,6.95
2024-02-19T15:25:48.849Z,8.18
2024-02-19T15:28:16.113Z,6.47
2024-02-19T15:30:44.282Z,7.13
2024-02-19T15:33:11.914Z,6.90
2024-02-19T15:35:39.078Z,6.95
2024-02-19T15:38:06.461Z,6.80
2024-02-19T15:40:34.680Z,7.78
2024-02-19T15:43:01.875Z,6.88
2024-02-19T15:45:29.104Z,7.32
2024-02-19T15:47:56.279Z,6.85
2024-02-19T15:50:23.460Z,7.93
2024-02-19T15:52:58.290Z,7.40
2024-02-19T15:55:32.216Z,8.40
2024-02-19T15:57:59.610Z,8.57
2024-02-19T16:00:26.980Z,8.25
2024-02-19T16:02:53.971Z,8.13
2024-02-19T16:05:21.210Z,8.32
2024-02-19T16:07:51.187Z,7.95
2024-02-19T16:10:18.626Z,9.32
2024-02-19T16:12:46.664Z,8.70
2024-02-19T16:15:14.538Z,10.00
2024-02-19T16:17:41.802Z,11.65
2024-02-19T16:20:09.373Z,12.27
2024-02-19T16:22:36.890Z,11.52
2024-02-19T16:25:08.307Z,11.93
2024-02-19T16:27:36.959Z,16.00
2024-02-19T16:30:06.475Z,13.15
2024-02-19T16:32:35.397Z,11.90
2024-02-19T16:35:03.066Z,11.07
2024-02-19T16:37:30.372Z,14.48
2024-02-19T16:39:57.406Z,10.80
2024-02-19T16:42:24.642Z,10.82
2024-02-19T16:44:51.686Z,10.38
2024-02-19T16:47:18.645Z,11.35
2024-02-19T16:49:46.984Z,11.95
2024-02-19T16:52:14.505Z,11.30
2024-02-19T16:54:41.523Z,11.52
2024-02-19T16:57:08.503Z,11.02
2024-02-19T16:59:36.539Z,11.15
2024-02-19T17:02:03.912Z,10.23
2024-02-19T17:04:31.101Z,9.80
2024-02-19T17:06:58.362Z,9.20
2024-02-19T17:09:25.516Z,9.30
2024-02-19T17:11:52.541Z,9.18
2024-02-19T17:14:19.480Z,9.77
2024-02-19T17:16:52.115Z,9.43
2024-02-19T17:19:21.417Z,6.97
2024-02-19T17:21:49.581Z,8.38
2024-02-19T17:24:16.799Z,9.45
2024-02-19T17:26:47.272Z,8.50
2024-02-19T17:29:14.402Z,9.32
2024-02-19T17:31:41.963Z,9.98
2024-02-19T17:34:09.151Z,8.93
2024-02-19T17:36:36.207Z,9.80
2024-02-19T17:39:05.199Z,16.75
2024-02-19T17:41:33.456Z,9.93
2024-02-19T17:44:00.724Z,9.15
2024-02-19T17:46:29.293Z,8.80
2024-02-19T17:48:56.549Z,9.02
2024-02-19T17:51:23.716Z,9.32
2024-02-19T17:53:50.766Z,9.77
2024-02-19T17:56:19.946Z,9.77
2024-02-19T17:58:47.327Z,9.30
2024-02-19T18:01:14.935Z,8.50
2024-02-19T18:03:42.089Z,9.93
2024-02-19T18:06:09.631Z,9.77
2024-02-19T18:08:37.647Z,10.05
2024-02-19T18:11:09.046Z,9.32
2024-02-19T18:13:36.618Z,9.68
2024-02-19T18:16:04.338Z,11.73
2024-02-19T18:18:31.672Z,10.45
2024-02-19T18:21:00.615Z,12.20
2024-02-19T18:23:31.037Z,18.08
2024-02-19T18:25:58.083Z,10.32
2024-02-19T18:28:26.035Z,11.18
2024-02-19T18:30:53.950Z,11.48
2024-02-19T18:33:23.317Z,11.40
2024-02-19T18:35:51.276Z,9.50
2024-02-19T18:38:19.145Z,8.77
2024-02-19T18:40:46.362Z,6.32
2024-02-19T18:43:14.108Z,6.00
2024-02-19T18:45:44.192Z,5.75
2024-02-19T18:48:11.391Z,6.20
2024-02-19T18:50:39.133Z,5.43
2024-02-19T18:53:06.590Z,6.65
2024-02-19T18:55:33.659Z,5.63
2024-02-19T18:58:02.279Z,5.72
2024-02-19T19:00:29.979Z,5.18
2024-02-19T19:02:59.722Z,5.65
2024-02-19T19:05:27.256Z,6.28
2024-02-19T19:07:55.786Z,6.10
2024-02-19T19:10:24.324Z,5.80
2024-02-19T19:12:51.488Z,5.50
2024-02-19T19:15:18.866Z,5.70
2024-02-19T19:17:46.876Z,5.78
2024-02-19T19:20:14.155Z,5.13
2024-02-19T19:22:41.546Z,4.97
2024-02-19T19:25:09.315Z,5.28
2024-02-19T19:27:36.319Z,5.00
2024-02-19T19:30:03.639Z,5.13
2024-02-19T19:32:31.516Z,4.72
2024-02-19T19:34:58.645Z,5.68
2024-02-19T19:37:26.303Z,6.82
2024-02-19T19:39:53.515Z,5.15
2024-02-19T19:42:25.312Z,4.93
2024-02-19T19:44:53.378Z,4.88
2024-02-19T19:47:20.422Z,4.72
2024-02-19T19:49:47.486Z,5.68
2024-02-19T19:52:17.568Z,6.72
2024-02-19T19:54:47.302Z,5.38
2024-02-19T19:57:14.498Z,5.70
2024-02-19T19:59:49.825Z,6.38
2024-02-19T20:02:17.395Z,7.30
2024-02-19T20:04:53.645Z,8.00
2024-02-19T20:07:21.065Z,6.43
2024-02-19T20:09:48.169Z,6.60
2024-02-19T20:12:15.522Z,7.43
2024-02-19T20:14:42.418Z,6.65
2024-02-19T20:17:10.176Z,7.15
2024-02-19T20:19:37.239Z,6.68
2024-02-19T20:22:04.871Z,6.97
2024-02-19T20:24:32.139Z,6.15
2024-02-19T20:27:02.272Z,6.22
2024-02-19T20:29:29.317Z,6.35
2024-02-19T20:31:58.657Z,6.68
2024-02-19T20:34:27.971Z,6.53
2024-02-19T20:36:55.326Z,6.50
2024-02-19T20:39:22.769Z,6.30
2024-02-19T20:41:56.264Z,6.72
2024-02-19T20:46:50.641Z,7.70
2024-02-19T20:49:17.831Z,7.43
2024-02-19T20:51:46.190Z,7.57
2024-02-19T20:54:13.235Z,7.85
2024-02-19T20:56:44.021Z,7.53
2024-02-19T20:59:11.080Z,7.70
2024-02-19T21:01:39.376Z,6.93
2024-02-19T21:04:08.632Z,8.02
2024-02-19T21:06:35.907Z,8.68
2024-02-19T21:09:03.600Z,7.18
2024-02-19T21:11:32.750Z,8.15
2024-02-19T21:14:01.397Z,7.95
2024-02-19T21:16:28.348Z,8.32
2024-02-19T21:18:55.707Z,7.93
2024-02-19T21:21:30.337Z,8.30
2024-02-19T21:24:02.910Z,7.72
2024-02-19T21:26:32.120Z,8.23
2024-02-19T21:28:59.751Z,8.80
2024-02-19T21:31:27.610Z,8.52
2024-02-19T21:33:55.086Z,8.43
2024-02-19T21:36:22.302Z,9.20
2024-02-19T21:38:50.785Z,8.57
2024-02-19T21:41:18.273Z,9.35
2024-02-19T21:43:45.548Z,9.40
2024-02-19T21:46:13.409Z,10.13
2024-02-19T21:48:41.484Z,8.60
2024-02-19T21:51:09.257Z,9.07
2024-02-19T21:53:36.352Z,8.35
2024-02-19T21:56:04.441Z,8.45
2024-02-19T21:58:31.409Z,8.82
2024-02-19T22:00:58.594Z,9.02
2024-02-19T22:03:25.856Z,8.90
2024-02-19T22:05:52.910Z,8.57
2024-02-19T22:08:19.864Z,8.63
2024-02-19T22:10:47.376Z,9.40
2024-02-19T22:13:14.573Z,8.98
2024-02-19T22:15:42.000Z,8.50
2024-02-19T22:18:09.501Z,9.60
2024-02-19T22:20:36.793Z,9.02
2024-02-19T22:23:03.997Z,8.73
2024-02-19T22:25:32.427Z,8.88
2024-02-19T22:28:01.317Z,8.43
2024-02-19T22:30:28.652Z,8.27
2024-02-19T22:32:56.217Z,8.10
2024-02-19T22:35:23.452Z,7.75
2024-02-19T22:37:51.508Z,8.68
2024-02-19T22:40:19.186Z,7.90
2024-02-19T22:42:46.316Z,8.57
2024-02-19T22:45:13.556Z,7.95
2024-02-19T22:47:40.765Z,8.57
2024-02-19T22:50:09.015Z,8.00
2024-02-19T22:52:38.892Z,8.98
2024-02-19T22:55:07.879Z,8.07
2024-02-19T22:57:35.863Z,7.70
2024-02-19T23:00:23.026Z,7.95
2024-02-19T23:02:50.334Z,8.35
2024-02-19T23:05:18.346Z,8.73
2024-02-19T23:07:46.138Z,10.30
2024-02-19T23:10:13.987Z,8.27
2024-02-19T23:12:41.719Z,7.28
2024-02-19T23:15:09.547Z,8.60
2024-02-19T23:17:36.767Z,7.90
2024-02-19T23:20:04.665Z,7.68
2024-02-19T23:22:31.733Z,8.77
2024-02-19T23:24:58.882Z,8.02
2024-02-19T23:27:25.965Z,8.75
2024-02-19T23:29:53.317Z,8.52
2024-02-19T23:32:20.320Z,9.48
2024-02-19T23:34:47.441Z,9.20
2024-02-19T23:37:14.585Z,9.20
2024-02-19T23:39:41.860Z,9.80
2024-02-19T23:42:10.517Z,9.50
2024-02-19T23:44:37.648Z,10.73
2024-02-19T23:47:05.920Z,10.60
2024-02-19T23:49:33.614Z,10.27
2024-02-19T23:52:01.279Z,10.18
2024-02-19T23:54:31.058Z,11.93
2024-02-19T23:57:00.976Z,12.25
2024-02-19T23:59:28.027Z,12.27
